sensor_id;sensor_type;location;lat;lon;timestamp;temperature;humidity
21039;DHT22;10678;51.002;4.786;2023-07-16T00:02:00;20.00;99.90
21039;DHT22;10678;51.002;4.786;2023-07-16T00:04:25;20.00;99.90
21039;DHT22;10678;51.002;4.786;2023-07-16T00:06:51;20.00;99.90
21039;DHT22;10678;51.002;4.786;2023-07-16T00:09:16;20.00;99.90
21039;DHT22;10678;51.002;4.786;2023-07-16T00:11:42;20.00;99.90
21039;DHT22;10678;51.002;4.786;2023-07-16T00:14:09;20.00;99.90
21039;DHT22;10678;51.002;4.786;2023-07-16T00:16:35;20.00;99.90
21039;DHT22;10678;51.002;4.786;2023-07-16T00:19:00;19.90;99.90
21039;DHT22;10678;51.002;4.786;2023-07-16T00:21:26;19.90;99.90
21039;DHT22;10678;51.002;4.786;2023-07-16T00:23:51;19.80;99.90
21039;DHT22;10678;51.002;4.786;2023-07-16T00:26:17;19.80;99.90
21039;DHT22;10678;51.002;4.786;2023-07-16T00:28:43;19.70;99.90
21039;DHT22;10678;51.002;4.786;2023-07-16T00:31:09;19.80;99.90
21039;DHT22;10678;51.002;4.786;2023-07-16T00:33:35;19.80;99.90
21039;DHT22;10678;51.002;4.786;2023-07-16T00:36:00;19.80;99.90
21039;DHT22;10678;51.002;4.786;2023-07-16T00:38:26;19.80;99.90
21039;DHT22;10678;51.002;4.786;2023-07-16T00:40:52;19.80;99.90
21039;DHT22;10678;51.002;4.786;2023-07-16T00:43:18;19.70;99.90
21039;DHT22;10678;51.002;4.786;2023-07-16T00:45:45;19.80;99.90
21039;DHT22;10678;51.002;4.786;2023-07-16T00:48:11;19.80;99.90
21039;DHT22;10678;51.002;4.786;2023-07-16T00:50:38;19.70;99.90
21039;DHT22;10678;51.002;4.786;2023-07-16T00:53:06;19.70;99.90
21039;DHT22;10678;51.002;4.786;2023-07-16T00:55:33;19.70;99.90
21039;DHT22;10678;51.002;4.786;2023-07-16T00:58:04;19.60;99.90
21039;DHT22;10678;51.002;4.786;2023-07-16T01:00:41;19.60;99.90
21039;DHT22;10678;51.002;4.786;2023-07-16T01:03:09;19.60;99.90
21039;DHT22;10678;51.002;4.786;2023-07-16T01:09:06;19.60;99.90
21039;DHT22;10678;51.002;4.786;2023-07-16T01:11:33;19.60;99.90
21039;DHT22;10678;51.002;4.786;2023-07-16T01:14:01;19.50;99.90
21039;DHT22;10678;51.002;4.786;2023-07-16T01:16:27;19.50;99.90
21039;DHT22;10678;51.002;4.786;2023-07-16T01:18:53;19.50;99.90
21039;DHT22;10678;51.002;4.786;2023-07-16T01:21:20;19.40;99.90
21039;DHT22;10678;51.002;4.786;2023-07-16T01:27:17;19.40;99.90
21039;DHT22;10678;51.002;4.786;2023-07-16T01:29:52;19.20;99.90
21039;DHT22;10678;51.002;4.786;2023-07-16T01:32:20;19.10;99.90
21039;DHT22;10678;51.002;4.786;2023-07-16T01:34:46;19.00;99.90
21039;DHT22;10678;51.002;4.786;2023-07-16T01:37:12;19.00;99.90
21039;DHT22;10678;51.002;4.786;2023-07-16T01:39:38;19.00;99.90
21039;DHT22;10678;51.002;4.786;2023-07-16T01:42:04;19.00;99.90
21039;DHT22;10678;51.002;4.786;2023-07-16T01:44:30;18.90;99.90
21039;DHT22;10678;51.002;4.786;2023-07-16T01:49:34;18.60;99.90
21039;DHT22;10678;51.002;4.786;2023-07-16T01:52:03;18.60;99.90
21039;DHT22;10678;51.002;4.786;2023-07-16T01:54:29;18.60;99.90
21039;DHT22;10678;51.002;4.786;2023-07-16T01:56:55;18.50;99.90
21039;DHT22;10678;51.002;4.786;2023-07-16T01:59:20;18.50;99.90
21039;DHT22;10678;51.002;4.786;2023-07-16T02:01:46;18.40;99.90
21039;DHT22;10678;51.002;4.786;2023-07-16T02:04:12;18.40;99.90
21039;DHT22;10678;51.002;4.786;2023-07-16T02:06:37;18.40;99.90
21039;DHT22;10678;51.002;4.786;2023-07-16T02:09:03;18.40;99.90
21039;DHT22;10678;51.002;4.786;2023-07-16T02:11:29;18.40;99.90
21039;DHT22;10678;51.002;4.786;2023-07-16T02:13:55;18.40;99.90
21039;DHT22;10678;51.002;4.786;2023-07-16T02:16:20;18.20;99.90
21039;DHT22;10678;51.002;4.786;2023-07-16T02:18:46;18.30;99.90
21039;DHT22;10678;51.002;4.786;2023-07-16T02:21:11;18.30;99.90
21039;DHT22;10678;51.002;4.786;2023-07-16T02:23:37;18.20;99.90
21039;DHT22;10678;51.002;4.786;2023-07-16T02:26:02;18.10;99.90
21039;DHT22;10678;51.002;4.786;2023-07-16T02:28:28;18.10;99.90
21039;DHT22;10678;51.002;4.786;2023-07-16T02:30:54;18.10;99.90
21039;DHT22;10678;51.002;4.786;2023-07-16T02:33:19;18.00;99.90
21039;DHT22;10678;51.002;4.786;2023-07-16T02:35:48;17.90;99.90
21039;DHT22;10678;51.002;4.786;2023-07-16T02:38:15;17.90;99.90
21039;DHT22;10678;51.002;4.786;2023-07-16T02:40:45;17.90;99.90
21039;DHT22;10678;51.002;4.786;2023-07-16T02:43:11;17.80;99.90
21039;DHT22;10678;51.002;4.786;2023-07-16T02:45:37;17.80;99.90
21039;DHT22;10678;51.002;4.786;2023-07-16T02:48:03;17.70;99.90
21039;DHT22;10678;51.002;4.786;2023-07-16T02:50:29;17.80;99.90
21039;DHT22;10678;51.002;4.786;2023-07-16T02:52:55;17.70;99.90
21039;DHT22;10678;51.002;4.786;2023-07-16T02:55:20;17.70;99.90
21039;DHT22;10678;51.002;4.786;2023-07-16T02:57:46;17.60;99.90
21039;DHT22;10678;51.002;4.786;2023-07-16T03:00:12;17.60;99.90
21039;DHT22;10678;51.002;4.786;2023-07-16T03:02:37;17.50;99.90
21039;DHT22;10678;51.002;4.786;2023-07-16T03:05:03;17.60;99.90
21039;DHT22;10678;51.002;4.786;2023-07-16T03:07:29;17.50;99.90
21039;DHT22;10678;51.002;4.786;2023-07-16T03:09:54;17.50;99.90
21039;DHT22;10678;51.002;4.786;2023-07-16T03:12:20;17.40;99.90
21039;DHT22;10678;51.002;4.786;2023-07-16T03:14:47;17.40;99.90
21039;DHT22;10678;51.002;4.786;2023-07-16T03:17:12;17.40;99.90
21039;DHT22;10678;51.002;4.786;2023-07-16T03:19:38;17.40;99.90
21039;DHT22;10678;51.002;4.786;2023-07-16T03:22:04;17.30;99.90
21039;DHT22;10678;51.002;4.786;2023-07-16T03:24:29;17.30;99.90
21039;DHT22;10678;51.002;4.786;2023-07-16T03:26:55;17.30;99.90
21039;DHT22;10678;51.002;4.786;2023-07-16T03:29:21;17.40;99.90
21039;DHT22;10678;51.002;4.786;2023-07-16T03:31:46;17.40;99.90
21039;DHT22;10678;51.002;4.786;2023-07-16T03:34:12;17.40;99.90
21039;DHT22;10678;51.002;4.786;2023-07-16T03:36:37;17.30;99.90
21039;DHT22;10678;51.002;4.786;2023-07-16T03:39:03;17.30;99.90
21039;DHT22;10678;51.002;4.786;2023-07-16T03:41:28;17.20;99.90
21039;DHT22;10678;51.002;4.786;2023-07-16T03:43:54;17.20;99.90
21039;DHT22;10678;51.002;4.786;2023-07-16T03:46:20;17.20;99.90
21039;DHT22;10678;51.002;4.786;2023-07-16T03:48:45;17.20;99.90
21039;DHT22;10678;51.002;4.786;2023-07-16T03:51:11;17.20;99.90
21039;DHT22;10678;51.002;4.786;2023-07-16T03:53:36;17.20;99.90
21039;DHT22;10678;51.002;4.786;2023-07-16T03:56:02;17.20;99.90
21039;DHT22;10678;51.002;4.786;2023-07-16T03:58:28;17.20;99.90
21039;DHT22;10678;51.002;4.786;2023-07-16T04:00:54;17.20;99.90
21039;DHT22;10678;51.002;4.786;2023-07-16T04:03:20;17.20;99.90
21039;DHT22;10678;51.002;4.786;2023-07-16T04:05:46;17.10;99.90
21039;DHT22;10678;51.002;4.786;2023-07-16T04:08:11;17.20;99.90
21039;DHT22;10678;51.002;4.786;2023-07-16T04:10:37;17.20;99.90
21039;DHT22;10678;51.002;4.786;2023-07-16T04:13:03;17.10;99.90
21039;DHT22;10678;51.002;4.786;2023-07-16T04:15:29;17.10;99.90
21039;DHT22;10678;51.002;4.786;2023-07-16T04:17:54;17.10;99.90
21039;DHT22;10678;51.002;4.786;2023-07-16T04:20:20;17.00;99.90
21039;DHT22;10678;51.002;4.786;2023-07-16T04:22:45;17.10;99.90
21039;DHT22;10678;51.002;4.786;2023-07-16T04:25:11;17.10;99.90
21039;DHT22;10678;51.002;4.786;2023-07-16T04:27:37;17.10;99.90
21039;DHT22;10678;51.002;4.786;2023-07-16T04:30:03;17.10;99.90
21039;DHT22;10678;51.002;4.786;2023-07-16T04:32:28;17.00;99.90
21039;DHT22;10678;51.002;4.786;2023-07-16T04:34:54;17.10;99.90
21039;DHT22;10678;51.002;4.786;2023-07-16T04:37:20;17.00;99.90
21039;DHT22;10678;51.002;4.786;2023-07-16T04:39:46;17.10;99.90
21039;DHT22;10678;51.002;4.786;2023-07-16T04:42:11;17.10;99.90
21039;DHT22;10678;51.002;4.786;2023-07-16T04:44:37;17.10;99.90
21039;DHT22;10678;51.002;4.786;2023-07-16T04:47:03;17.20;99.90
21039;DHT22;10678;51.002;4.786;2023-07-16T04:49:28;17.10;99.90
21039;DHT22;10678;51.002;4.786;2023-07-16T04:51:54;17.10;99.90
21039;DHT22;10678;51.002;4.786;2023-07-16T04:54:19;17.10;99.90
21039;DHT22;10678;51.002;4.786;2023-07-16T04:56:45;17.20;99.90
21039;DHT22;10678;51.002;4.786;2023-07-16T04:59:10;17.20;99.90
21039;DHT22;10678;51.002;4.786;2023-07-16T05:01:36;17.20;99.90
21039;DHT22;10678;51.002;4.786;2023-07-16T05:04:02;17.10;99.90
21039;DHT22;10678;51.002;4.786;2023-07-16T05:06:27;17.20;99.90
21039;DHT22;10678;51.002;4.786;2023-07-16T05:08:53;17.20;99.90
21039;DHT22;10678;51.002;4.786;2023-07-16T05:11:19;17.10;99.90
21039;DHT22;10678;51.002;4.786;2023-07-16T05:13:45;17.20;99.90
21039;DHT22;10678;51.002;4.786;2023-07-16T05:16:10;17.20;99.90
21039;DHT22;10678;51.002;4.786;2023-07-16T05:18:36;17.20;99.90
21039;DHT22;10678;51.002;4.786;2023-07-16T05:21:02;17.20;99.90
21039;DHT22;10678;51.002;4.786;2023-07-16T05:23:27;17.30;99.90
21039;DHT22;10678;51.002;4.786;2023-07-16T05:25:53;17.30;99.90
21039;DHT22;10678;51.002;4.786;2023-07-16T05:28:19;17.30;99.90
21039;DHT22;10678;51.002;4.786;2023-07-16T05:30:44;17.30;99.90
21039;DHT22;10678;51.002;4.786;2023-07-16T05:33:11;17.40;99.90
21039;DHT22;10678;51.002;4.786;2023-07-16T05:35:37;17.50;99.90
21039;DHT22;10678;51.002;4.786;2023-07-16T05:38:03;17.60;99.90
21039;DHT22;10678;51.002;4.786;2023-07-16T05:40:29;17.60;99.90
21039;DHT22;10678;51.002;4.786;2023-07-16T05:42:55;17.70;99.90
21039;DHT22;10678;51.002;4.786;2023-07-16T05:45:20;17.70;99.90
21039;DHT22;10678;51.002;4.786;2023-07-16T05:47:46;17.80;99.90
21039;DHT22;10678;51.002;4.786;2023-07-16T05:50:11;17.70;99.90
21039;DHT22;10678;51.002;4.786;2023-07-16T05:52:37;17.70;99.90
21039;DHT22;10678;51.002;4.786;2023-07-16T05:55:03;17.80;99.90
21039;DHT22;10678;51.002;4.786;2023-07-16T05:57:28;18.00;99.90
21039;DHT22;10678;51.002;4.786;2023-07-16T05:59:54;18.00;99.90
21039;DHT22;10678;51.002;4.786;2023-07-16T06:02:19;18.00;99.90
21039;DHT22;10678;51.002;4.786;2023-07-16T06:04:45;18.10;99.90
21039;DHT22;10678;51.002;4.786;2023-07-16T06:07:12;18.30;99.90
21039;DHT22;10678;51.002;4.786;2023-07-16T06:09:38;18.50;99.90
21039;DHT22;10678;51.002;4.786;2023-07-16T06:12:04;18.60;99.90
21039;DHT22;10678;51.002;4.786;2023-07-16T06:14:29;18.70;99.90
21039;DHT22;10678;51.002;4.786;2023-07-16T06:16:55;18.80;99.90
21039;DHT22;10678;51.002;4.786;2023-07-16T06:19:20;19.00;99.90
21039;DHT22;10678;51.002;4.786;2023-07-16T06:21:46;19.10;99.90
21039;DHT22;10678;51.002;4.786;2023-07-16T06:24:12;19.10;99.90
21039;DHT22;10678;51.002;4.786;2023-07-16T06:26:38;19.30;99.90
21039;DHT22;10678;51.002;4.786;2023-07-16T06:29:03;19.60;99.90
21039;DHT22;10678;51.002;4.786;2023-07-16T06:31:29;19.60;99.90
21039;DHT22;10678;51.002;4.786;2023-07-16T06:33:54;19.80;99.90
21039;DHT22;10678;51.002;4.786;2023-07-16T06:36:20;19.90;99.90
21039;DHT22;10678;51.002;4.786;2023-07-16T06:38:46;20.00;99.90
21039;DHT22;10678;51.002;4.786;2023-07-16T06:41:12;20.20;99.90
21039;DHT22;10678;51.002;4.786;2023-07-16T06:43:38;20.20;99.90
21039;DHT22;10678;51.002;4.786;2023-07-16T06:46:03;20.30;99.90
21039;DHT22;10678;51.002;4.786;2023-07-16T06:48:29;20.50;99.90
21039;DHT22;10678;51.002;4.786;2023-07-16T06:50:54;20.60;99.90
21039;DHT22;10678;51.002;4.786;2023-07-16T06:53:20;20.80;99.90
21039;DHT22;10678;51.002;4.786;2023-07-16T06:55:47;21.00;99.90
21039;DHT22;10678;51.002;4.786;2023-07-16T06:58:13;21.10;99.90
21039;DHT22;10678;51.002;4.786;2023-07-16T07:00:40;21.30;99.90
21039;DHT22;10678;51.002;4.786;2023-07-16T07:03:05;21.50;99.90
21039;DHT22;10678;51.002;4.786;2023-07-16T07:05:31;21.70;99.90
21039;DHT22;10678;51.002;4.786;2023-07-16T07:07:56;21.90;99.90
21039;DHT22;10678;51.002;4.786;2023-07-16T07:10:22;22.00;99.90
21039;DHT22;10678;51.002;4.786;2023-07-16T07:12:48;22.20;99.90
21039;DHT22;10678;51.002;4.786;2023-07-16T07:15:13;22.30;99.90
21039;DHT22;10678;51.002;4.786;2023-07-16T07:17:39;22.40;99.90
21039;DHT22;10678;51.002;4.786;2023-07-16T07:20:06;22.50;99.90
21039;DHT22;10678;51.002;4.786;2023-07-16T07:22:32;22.80;99.90
21039;DHT22;10678;51.002;4.786;2023-07-16T07:24:58;23.00;99.90
21039;DHT22;10678;51.002;4.786;2023-07-16T07:27:23;23.10;99.90
21039;DHT22;10678;51.002;4.786;2023-07-16T07:29:49;23.00;99.90
21039;DHT22;10678;51.002;4.786;2023-07-16T07:32:21;22.90;99.90
21039;DHT22;10678;51.002;4.786;2023-07-16T07:34:46;22.90;99.90
21039;DHT22;10678;51.002;4.786;2023-07-16T07:37:12;23.10;99.90
21039;DHT22;10678;51.002;4.786;2023-07-16T07:39:37;23.50;99.90
21039;DHT22;10678;51.002;4.786;2023-07-16T07:42:04;23.60;99.90
21039;DHT22;10678;51.002;4.786;2023-07-16T07:44:29;23.70;99.90
21039;DHT22;10678;51.002;4.786;2023-07-16T07:46:55;23.70;99.90
21039;DHT22;10678;51.002;4.786;2023-07-16T07:49:20;23.40;99.90
21039;DHT22;10678;51.002;4.786;2023-07-16T07:51:46;23.40;99.90
21039;DHT22;10678;51.002;4.786;2023-07-16T07:54:14;23.50;99.90
21039;DHT22;10678;51.002;4.786;2023-07-16T07:56:40;23.70;99.90
21039;DHT22;10678;51.002;4.786;2023-07-16T07:59:05;23.80;99.90
21039;DHT22;10678;51.002;4.786;2023-07-16T08:01:31;23.90;99.90
21039;DHT22;10678;51.002;4.786;2023-07-16T08:03:57;24.00;99.90
21039;DHT22;10678;51.002;4.786;2023-07-16T08:06:22;24.10;99.90
21039;DHT22;10678;51.002;4.786;2023-07-16T08:08:48;24.20;99.90
21039;DHT22;10678;51.002;4.786;2023-07-16T08:11:13;24.40;99.90
21039;DHT22;10678;51.002;4.786;2023-07-16T08:13:39;24.20;99.90
21039;DHT22;10678;51.002;4.786;2023-07-16T08:16:04;24.00;99.90
21039;DHT22;10678;51.002;4.786;2023-07-16T08:18:30;23.70;99.90
21039;DHT22;10678;51.002;4.786;2023-07-16T08:20:55;23.70;99.90
21039;DHT22;10678;51.002;4.786;2023-07-16T08:23:21;23.80;99.90
21039;DHT22;10678;51.002;4.786;2023-07-16T08:25:47;24.00;99.90
21039;DHT22;10678;51.002;4.786;2023-07-16T08:28:12;24.60;99.90
21039;DHT22;10678;51.002;4.786;2023-07-16T08:30:38;24.90;99.90
21039;DHT22;10678;51.002;4.786;2023-07-16T08:33:03;25.20;99.90
21039;DHT22;10678;51.002;4.786;2023-07-16T08:35:29;25.50;99.90
21039;DHT22;10678;51.002;4.786;2023-07-16T08:37:55;26.00;99.90
21039;DHT22;10678;51.002;4.786;2023-07-16T08:40:20;26.40;99.90
21039;DHT22;10678;51.002;4.786;2023-07-16T08:42:47;26.60;99.90
21039;DHT22;10678;51.002;4.786;2023-07-16T08:45:15;26.80;99.90
21039;DHT22;10678;51.002;4.786;2023-07-16T08:47:41;26.60;99.90
21039;DHT22;10678;51.002;4.786;2023-07-16T08:50:07;26.30;99.90
21039;DHT22;10678;51.002;4.786;2023-07-16T08:52:33;26.30;99.90
21039;DHT22;10678;51.002;4.786;2023-07-16T08:54:59;26.20;99.90
21039;DHT22;10678;51.002;4.786;2023-07-16T08:57:25;26.10;99.90
21039;DHT22;10678;51.002;4.786;2023-07-16T08:59:51;25.80;99.90
21039;DHT22;10678;51.002;4.786;2023-07-16T09:02:17;25.20;99.90
21039;DHT22;10678;51.002;4.786;2023-07-16T09:04:44;25.10;99.90
21039;DHT22;10678;51.002;4.786;2023-07-16T09:07:09;25.00;99.90
21039;DHT22;10678;51.002;4.786;2023-07-16T09:09:35;25.30;99.90
21039;DHT22;10678;51.002;4.786;2023-07-16T09:12:02;25.70;99.90
21039;DHT22;10678;51.002;4.786;2023-07-16T09:14:27;25.80;99.90
21039;DHT22;10678;51.002;4.786;2023-07-16T09:16:53;25.60;99.90
21039;DHT22;10678;51.002;4.786;2023-07-16T09:19:21;25.40;99.90
21039;DHT22;10678;51.002;4.786;2023-07-16T09:21:48;25.30;99.90
21039;DHT22;10678;51.002;4.786;2023-07-16T09:24:14;24.80;99.90
21039;DHT22;10678;51.002;4.786;2023-07-16T09:26:47;24.70;99.90
21039;DHT22;10678;51.002;4.786;2023-07-16T09:29:13;25.40;99.90
21039;DHT22;10678;51.002;4.786;2023-07-16T09:31:39;25.80;99.90
21039;DHT22;10678;51.002;4.786;2023-07-16T09:34:15;26.20;99.90
21039;DHT22;10678;51.002;4.786;2023-07-16T09:36:41;26.30;99.90
21039;DHT22;10678;51.002;4.786;2023-07-16T09:39:07;25.80;99.90
21039;DHT22;10678;51.002;4.786;2023-07-16T09:41:33;25.70;99.90
21039;DHT22;10678;51.002;4.786;2023-07-16T09:43:59;25.50;99.90
21039;DHT22;10678;51.002;4.786;2023-07-16T09:46:25;25.40;99.90
21039;DHT22;10678;51.002;4.786;2023-07-16T09:48:50;25.20;99.90
21039;DHT22;10678;51.002;4.786;2023-07-16T09:51:16;25.20;99.90
21039;DHT22;10678;51.002;4.786;2023-07-16T09:53:43;25.20;99.90
21039;DHT22;10678;51.002;4.786;2023-07-16T09:56:12;25.30;99.90
21039;DHT22;10678;51.002;4.786;2023-07-16T09:58:38;25.20;99.90
21039;DHT22;10678;51.002;4.786;2023-07-16T10:01:05;25.10;99.90
21039;DHT22;10678;51.002;4.786;2023-07-16T10:03:31;25.00;99.90
21039;DHT22;10678;51.002;4.786;2023-07-16T10:06:06;24.80;99.90
21039;DHT22;10678;51.002;4.786;2023-07-16T10:08:34;24.80;99.90
21039;DHT22;10678;51.002;4.786;2023-07-16T10:11:02;25.00;99.90
21039;DHT22;10678;51.002;4.786;2023-07-16T10:13:28;25.10;99.90
21039;DHT22;10678;51.002;4.786;2023-07-16T10:15:56;25.00;99.90
21039;DHT22;10678;51.002;4.786;2023-07-16T10:18:32;24.90;99.90
21039;DHT22;10678;51.002;4.786;2023-07-16T10:21:08;24.80;99.90
21039;DHT22;10678;51.002;4.786;2023-07-16T10:23:40;24.70;99.90
21039;DHT22;10678;51.002;4.786;2023-07-16T10:26:07;24.80;99.90
21039;DHT22;10678;51.002;4.786;2023-07-16T10:28:35;24.80;99.90
21039;DHT22;10678;51.002;4.786;2023-07-16T10:31:02;24.90;99.90
21039;DHT22;10678;51.002;4.786;2023-07-16T10:33:27;24.90;99.90
21039;DHT22;10678;51.002;4.786;2023-07-16T10:35:53;24.90;99.90
21039;DHT22;10678;51.002;4.786;2023-07-16T10:38:21;24.80;99.90
21039;DHT22;10678;51.002;4.786;2023-07-16T10:40:47;24.60;99.90
21039;DHT22;10678;51.002;4.786;2023-07-16T10:43:12;24.40;99.90
21039;DHT22;10678;51.002;4.786;2023-07-16T10:45:38;24.30;99.90
21039;DHT22;10678;51.002;4.786;2023-07-16T10:48:04;24.00;99.90
21039;DHT22;10678;51.002;4.786;2023-07-16T10:50:33;23.80;99.90
21039;DHT22;10678;51.002;4.786;2023-07-16T10:53:00;23.60;99.90
21039;DHT22;10678;51.002;4.786;2023-07-16T10:55:30;23.50;99.90
21039;DHT22;10678;51.002;4.786;2023-07-16T10:57:58;23.60;99.90
21039;DHT22;10678;51.002;4.786;2023-07-16T11:00:23;23.40;99.90
21039;DHT22;10678;51.002;4.786;2023-07-16T11:02:50;23.50;99.90
21039;DHT22;10678;51.002;4.786;2023-07-16T11:05:16;23.60;99.90
21039;DHT22;10678;51.002;4.786;2023-07-16T11:07:49;23.60;99.90
21039;DHT22;10678;51.002;4.786;2023-07-16T11:10:18;23.60;99.90
21039;DHT22;10678;51.002;4.786;2023-07-16T11:12:44;23.50;99.90
21039;DHT22;10678;51.002;4.786;2023-07-16T11:15:10;23.60;99.90
21039;DHT22;10678;51.002;4.786;2023-07-16T11:17:38;23.60;99.90
21039;DHT22;10678;51.002;4.786;2023-07-16T11:20:07;23.70;99.90
21039;DHT22;10678;51.002;4.786;2023-07-16T11:22:36;23.90;99.90
21039;DHT22;10678;51.002;4.786;2023-07-16T11:25:02;24.10;99.90
21039;DHT22;10678;51.002;4.786;2023-07-16T11:27:30;24.60;99.90
21039;DHT22;10678;51.002;4.786;2023-07-16T11:29:57;25.00;99.90
21039;DHT22;10678;51.002;4.786;2023-07-16T11:35:01;25.40;99.90
21039;DHT22;10678;51.002;4.786;2023-07-16T11:37:31;25.40;99.90
21039;DHT22;10678;51.002;4.786;2023-07-16T11:40:01;25.40;99.90
21039;DHT22;10678;51.002;4.786;2023-07-16T11:42:30;25.30;99.90
21039;DHT22;10678;51.002;4.786;2023-07-16T11:44:57;25.20;99.90
21039;DHT22;10678;51.002;4.786;2023-07-16T11:47:22;24.90;99.90
21039;DHT22;10678;51.002;4.786;2023-07-16T11:49:49;24.50;99.90
21039;DHT22;10678;51.002;4.786;2023-07-16T11:52:18;24.50;99.90
21039;DHT22;10678;51.002;4.786;2023-07-16T11:54:44;24.20;99.90
21039;DHT22;10678;51.002;4.786;2023-07-16T11:57:10;24.10;99.90
21039;DHT22;10678;51.002;4.786;2023-07-16T11:59:35;23.90;99.90
21039;DHT22;10678;51.002;4.786;2023-07-16T12:02:02;23.90;99.90
21039;DHT22;10678;51.002;4.786;2023-07-16T12:04:28;24.20;99.90
21039;DHT22;10678;51.002;4.786;2023-07-16T12:06:54;25.10;99.90
21039;DHT22;10678;51.002;4.786;2023-07-16T12:09:19;25.80;99.90
21039;DHT22;10678;51.002;4.786;2023-07-16T12:11:45;26.20;99.90
21039;DHT22;10678;51.002;4.786;2023-07-16T12:14:11;26.50;99.90
21039;DHT22;10678;51.002;4.786;2023-07-16T12:16:38;27.00;99.90
21039;DHT22;10678;51.002;4.786;2023-07-16T12:19:05;27.20;99.90
21039;DHT22;10678;51.002;4.786;2023-07-16T12:21:30;27.00;99.90
21039;DHT22;10678;51.002;4.786;2023-07-16T12:23:56;26.60;99.90
21039;DHT22;10678;51.002;4.786;2023-07-16T12:26:21;26.30;99.90
21039;DHT22;10678;51.002;4.786;2023-07-16T12:28:47;26.20;99.90
21039;DHT22;10678;51.002;4.786;2023-07-16T12:31:14;26.50;99.90
21039;DHT22;10678;51.002;4.786;2023-07-16T12:33:40;26.80;99.90
21039;DHT22;10678;51.002;4.786;2023-07-16T12:36:06;27.20;99.90
21039;DHT22;10678;51.002;4.786;2023-07-16T12:38:31;27.80;99.90
21039;DHT22;10678;51.002;4.786;2023-07-16T12:40:57;28.00;99.90
21039;DHT22;10678;51.002;4.786;2023-07-16T12:43:22;28.10;99.90
21039;DHT22;10678;51.002;4.786;2023-07-16T12:45:48;28.00;99.90
21039;DHT22;10678;51.002;4.786;2023-07-16T12:48:13;28.00;99.90
21039;DHT22;10678;51.002;4.786;2023-07-16T12:50:39;27.90;99.90
21039;DHT22;10678;51.002;4.786;2023-07-16T12:53:05;27.90;99.90
21039;DHT22;10678;51.002;4.786;2023-07-16T12:55:30;27.90;99.90
21039;DHT22;10678;51.002;4.786;2023-07-16T12:57:57;27.80;99.90
21039;DHT22;10678;51.002;4.786;2023-07-16T13:00:22;27.50;99.90
21039;DHT22;10678;51.002;4.786;2023-07-16T13:02:48;27.10;99.90
21039;DHT22;10678;51.002;4.786;2023-07-16T13:05:13;26.70;99.90
21039;DHT22;10678;51.002;4.786;2023-07-16T13:07:39;26.50;99.90
21039;DHT22;10678;51.002;4.786;2023-07-16T13:10:05;26.20;99.90
21039;DHT22;10678;51.002;4.786;2023-07-16T13:12:31;26.10;99.90
21039;DHT22;10678;51.002;4.786;2023-07-16T13:14:57;26.00;99.90
21039;DHT22;10678;51.002;4.786;2023-07-16T13:17:22;25.70;99.90
21039;DHT22;10678;51.002;4.786;2023-07-16T13:19:48;25.70;99.90
21039;DHT22;10678;51.002;4.786;2023-07-16T13:22:13;25.70;99.90
21039;DHT22;10678;51.002;4.786;2023-07-16T13:24:39;25.60;99.90
21039;DHT22;10678;51.002;4.786;2023-07-16T13:27:05;25.60;99.90
21039;DHT22;10678;51.002;4.786;2023-07-16T13:29:31;25.70;99.90
21039;DHT22;10678;51.002;4.786;2023-07-16T13:31:56;26.00;99.90
21039;DHT22;10678;51.002;4.786;2023-07-16T13:34:22;26.10;99.90
21039;DHT22;10678;51.002;4.786;2023-07-16T13:36:47;26.00;99.90
21039;DHT22;10678;51.002;4.786;2023-07-16T13:39:13;26.00;99.90
21039;DHT22;10678;51.002;4.786;2023-07-16T13:41:39;26.10;99.90
21039;DHT22;10678;51.002;4.786;2023-07-16T13:44:05;26.20;99.90
21039;DHT22;10678;51.002;4.786;2023-07-16T13:46:30;26.20;99.90
21039;DHT22;10678;51.002;4.786;2023-07-16T13:48:56;26.70;99.90
21039;DHT22;10678;51.002;4.786;2023-07-16T13:51:22;27.00;99.90
21039;DHT22;10678;51.002;4.786;2023-07-16T13:53:48;27.00;99.90
21039;DHT22;10678;51.002;4.786;2023-07-16T13:56:13;27.20;99.90
21039;DHT22;10678;51.002;4.786;2023-07-16T13:58:39;27.20;99.90
21039;DHT22;10678;51.002;4.786;2023-07-16T14:01:05;27.00;99.90
21039;DHT22;10678;51.002;4.786;2023-07-16T14:03:30;26.90;99.90
21039;DHT22;10678;51.002;4.786;2023-07-16T14:05:56;26.40;99.90
21039;DHT22;10678;51.002;4.786;2023-07-16T14:08:22;26.40;99.90
21039;DHT22;10678;51.002;4.786;2023-07-16T14:10:48;26.20;99.90
21039;DHT22;10678;51.002;4.786;2023-07-16T14:13:14;26.00;99.90
21039;DHT22;10678;51.002;4.786;2023-07-16T14:15:41;25.80;99.90
21039;DHT22;10678;51.002;4.786;2023-07-16T14:18:07;25.60;99.90
21039;DHT22;10678;51.002;4.786;2023-07-16T14:20:32;25.50;99.90
21039;DHT22;10678;51.002;4.786;2023-07-16T14:22:58;25.40;99.90
21039;DHT22;10678;51.002;4.786;2023-07-16T14:25:24;25.30;99.90
21039;DHT22;10678;51.002;4.786;2023-07-16T14:27:49;25.10;99.90
21039;DHT22;10678;51.002;4.786;2023-07-16T14:30:15;25.00;99.90
21039;DHT22;10678;51.002;4.786;2023-07-16T14:32:41;25.10;99.90
21039;DHT22;10678;51.002;4.786;2023-07-16T14:35:08;25.20;99.90
21039;DHT22;10678;51.002;4.786;2023-07-16T14:37:34;25.40;99.90
21039;DHT22;10678;51.002;4.786;2023-07-16T14:40:00;25.40;99.90
21039;DHT22;10678;51.002;4.786;2023-07-16T14:42:25;25.30;99.90
21039;DHT22;10678;51.002;4.786;2023-07-16T14:44:51;25.30;99.90
21039;DHT22;10678;51.002;4.786;2023-07-16T14:47:17;25.30;99.90
21039;DHT22;10678;51.002;4.786;2023-07-16T14:49:43;25.30;99.90
21039;DHT22;10678;51.002;4.786;2023-07-16T14:52:08;25.40;99.90
21039;DHT22;10678;51.002;4.786;2023-07-16T14:54:34;25.50;99.90
21039;DHT22;10678;51.002;4.786;2023-07-16T14:57:01;25.50;99.90
21039;DHT22;10678;51.002;4.786;2023-07-16T14:59:28;25.50;99.90
21039;DHT22;10678;51.002;4.786;2023-07-16T15:01:54;25.60;99.90
21039;DHT22;10678;51.002;4.786;2023-07-16T15:04:20;25.70;99.90
21039;DHT22;10678;51.002;4.786;2023-07-16T15:06:45;25.70;99.90
21039;DHT22;10678;51.002;4.786;2023-07-16T15:09:11;25.80;99.90
21039;DHT22;10678;51.002;4.786;2023-07-16T15:11:39;25.80;99.90
21039;DHT22;10678;51.002;4.786;2023-07-16T15:14:04;25.80;99.90
21039;DHT22;10678;51.002;4.786;2023-07-16T15:16:30;25.70;99.90
21039;DHT22;10678;51.002;4.786;2023-07-16T15:18:56;25.80;99.90
21039;DHT22;10678;51.002;4.786;2023-07-16T15:21:21;26.00;99.90
21039;DHT22;10678;51.002;4.786;2023-07-16T15:23:47;25.90;99.90
21039;DHT22;10678;51.002;4.786;2023-07-16T15:26:12;25.90;99.90
21039;DHT22;10678;51.002;4.786;2023-07-16T15:28:39;25.80;99.90
21039;DHT22;10678;51.002;4.786;2023-07-16T15:31:06;25.70;99.90
21039;DHT22;10678;51.002;4.786;2023-07-16T15:33:32;25.50;99.90
21039;DHT22;10678;51.002;4.786;2023-07-16T15:35:59;25.40;99.90